Time;durP1;ratioP1;P1;durP2;ratioP2;P2;SDS_P1;SDS_P2;PMS_P1;PMS_P2;Temp;Humidity;BMP_temperature;BMP_pressure;BME280_temperature;BME280_humidity;BME280_pressure;Samples;Min_cycle;Max_cycle;Signal;HPM_P1;HPM_P2
2022/11/10 00:00:31;;;;;;;3.37;2.33;;;;;;;-145.69;100.00;52541.44;5134469;27;20210;-81
2022/11/10 00:03:01;;;;;;;2.30;2.00;;;;;;;-145.69;100.00;52547.38;5134637;27;20705;-82
2022/11/10 00:05:27;;;;;;;2.23;1.80;;;;;;;-145.69;100.00;52527.56;5134254;27;20204;-83
2022/11/10 00:07:54;;;;;;;3.33;1.70;;;;;;;-145.69;100.00;52499.84;5134509;27;20192;-83
2022/11/10 00:10:20;;;;;;;6.13;2.40;;;;;;;-145.69;100.00;52529.53;5134488;27;20197;-82
2022/11/10 00:12:48;;;;;;;5.43;2.20;;;;;;;-145.69;100.00;52547.38;5134428;27;20193;-83
2022/11/10 00:18:02;;;;;;;6.00;2.20;;;;;;;-145.69;100.00;52527.56;5134594;27;20196;-82
2022/11/10 00:20:28;;;;;;;2.87;1.80;;;;;;;-145.69;100.00;52549.34;5134669;28;20257;-83
2022/11/10 00:22:55;;;;;;;4.70;2.53;;;;;;;-145.69;100.00;52567.16;5134485;27;20228;-83
2022/11/10 00:25:22;;;;;;;4.60;2.23;;;;;;;-145.69;100.00;52559.25;5134598;28;20201;-83
2022/11/10 00:27:50;;;;;;;11.37;2.57;;;;;;;-145.69;100.00;52531.53;5134261;28;20299;-83
2022/11/10 00:30:17;;;;;;;5.10;3.20;;;;;;;-145.69;100.00;52551.31;5133955;28;20532;-82
2022/11/10 00:32:43;;;;;;;8.63;2.83;;;;;;;-145.69;100.00;52559.25;5134953;27;20558;-82
2022/11/10 00:35:10;;;;;;;4.57;3.00;;;;;;;-145.69;100.00;52531.53;5135034;27;20220;-83
2022/11/10 00:37:37;;;;;;;3.23;2.60;;;;;;;-145.69;100.00;52541.44;5139186;27;20200;-82
2022/11/10 00:40:04;;;;;;;5.03;2.73;;;;;;;-145.69;100.00;52523.59;5138855;27;20208;-83
2022/11/10 00:42:30;;;;;;;4.90;2.40;;;;;;;-145.69;100.00;52539.44;5139030;27;20207;-83
2022/11/10 00:44:58;;;;;;;4.13;2.30;;;;;;;-145.69;100.00;52519.63;5138767;27;20674;-83
2022/11/10 00:47:25;;;;;;;6.00;2.60;;;;;;;-145.69;100.00;52581.03;5139274;27;20204;-83
2022/11/10 00:49:51;;;;;;;4.47;2.13;;;;;;;-145.69;100.00;52571.13;5139487;27;20694;-82
2022/11/10 00:52:18;;;;;;;2.93;2.23;;;;;;;-145.69;100.00;52539.44;5140469;27;20197;-82
2022/11/10 00:54:44;;;;;;;4.20;2.53;;;;;;;-145.69;100.00;52547.38;5138373;27;20204;-83
2022/11/10 00:57:11;;;;;;;6.07;3.07;;;;;;;-145.69;100.00;52519.63;5138900;27;20196;-83
2022/11/10 00:59:37;;;;;;;4.17;2.77;;;;;;;-145.69;100.00;52537.47;5137698;27;20674;-83
2022/11/10 01:02:05;;;;;;;7.30;2.73;;;;;;;-145.69;100.00;52529.53;5138502;27;20197;-83
2022/11/10 01:04:34;;;;;;;7.37;2.93;;;;;;;-145.69;100.00;52592.91;5138090;27;20228;-83
2022/11/10 01:07:01;;;;;;;7.67;2.83;;;;;;;-145.69;100.00;52535.47;5138104;27;20204;-83
2022/11/10 01:09:27;;;;;;;9.13;3.30;;;;;;;-145.69;100.00;52527.56;5138254;27;20239;-83
2022/11/10 01:11:54;;;;;;;11.33;2.60;;;;;;;-145.69;100.00;52543.41;5137738;27;20196;-82
2022/11/10 01:14:23;;;;;;;10.97;2.80;;;;;;;-145.69;100.00;52563.22;5137740;27;20647;-82
2022/11/10 01:16:49;;;;;;;9.23;2.40;;;;;;;-145.69;100.00;52559.25;5128412;27;20193;-82
2022/11/10 01:19:17;;;;;;;5.87;1.80;;;;;;;-145.69;100.00;52575.09;5117073;28;20197;-83
2022/11/10 01:21:44;;;;;;;9.27;2.07;;;;;;;-145.69;100.00;52581.03;5130313;27;20193;-83
2022/11/10 01:24:10;;;;;;;5.93;1.80;;;;;;;-145.69;100.00;52547.38;5137789;27;20231;-83
2022/11/10 01:26:39;;;;;;;8.67;2.43;;;;;;;-145.69;100.00;52561.22;5137646;27;20291;-82
2022/11/10 01:29:05;;;;;;;8.37;2.23;;;;;;;-145.69;100.00;52559.25;5138611;27;20201;-82
2022/11/10 01:31:32;;;;;;;5.63;2.20;;;;;;;-145.69;100.00;52585.00;5138488;27;20398;-83
2022/11/10 01:34:00;;;;;;;8.50;2.50;;;;;;;-145.69;100.00;52535.47;5138327;27;20228;-82
2022/11/10 01:36:29;;;;;;;6.93;2.10;;;;;;;-145.69;100.00;52531.53;5137629;27;20662;-83
2022/11/10 01:38:55;;;;;;;5.27;2.90;;;;;;;-145.69;100.00;52543.41;5137591;27;20697;-82
2022/11/10 01:41:22;;;;;;;6.43;2.30;;;;;;;-145.69;100.00;52575.09;5137568;27;20211;-82
2022/11/10 01:43:49;;;;;;;9.87;3.20;;;;;;;-145.69;100.00;52575.09;5137748;27;20231;-83
2022/11/10 01:46:15;;;;;;;5.40;2.00;;;;;;;-145.69;100.00;52571.13;5137638;27;20647;-83
2022/11/10 01:48:45;;;;;;;6.70;2.60;;;;;;;-145.69;100.00;52515.69;5137420;27;20196;-83
2022/11/10 01:51:17;;;;;;;5.03;2.47;;;;;;;-145.69;100.00;52543.41;5138299;27;20208;-82
2022/11/10 01:53:53;;;;;;;6.30;2.67;;;;;;;-145.69;100.00;52563.22;5138125;27;20193;-82
2022/11/10 01:56:21;;;;;;;8.77;2.30;;;;;;;-145.69;100.00;52551.31;5139284;27;20204;-81
2022/11/10 01:58:56;;;;;;;9.40;2.40;;;;;;;-145.69;100.00;52577.06;5138980;27;20197;-82
2022/11/10 02:01:24;;;;;;;9.23;2.67;;;;;;;-145.69;100.00;52559.25;5137514;27;20201;-82
2022/11/10 02:03:52;;;;;;;5.53;2.30;;;;;;;-145.69;100.00;52555.28;5137574;27;20705;-82
2022/11/10 02:06:22;;;;;;;8.87;2.50;;;;;;;-145.69;100.00;52547.38;5137307;27;20574;-83
2022/11/10 02:08:51;;;;;;;14.38;2.35;;;;;;;-145.69;100.00;52571.13;5137256;27;21019;-82
2022/11/10 02:11:18;;;;;;;7.70;2.40;;;;;;;-145.69;100.00;52535.47;5137536;27;20555;-83
2022/11/10 02:13:47;;;;;;;8.67;2.60;;;;;;;-145.69;100.00;52602.81;5136956;27;20201;-83
2022/11/10 02:16:16;;;;;;;7.63;2.60;;;;;;;-145.69;100.00;52517.66;5136318;27;20197;-83
2022/11/10 02:18:43;;;;;;;9.07;2.57;;;;;;;-145.69;100.00;52571.13;5137342;27;20200;-82
2022/11/10 02:21:11;;;;;;;8.00;2.70;;;;;;;-145.69;100.00;52547.38;5137106;27;20223;-82
2022/11/10 02:23:49;;;;;;;5.57;2.50;;;;;;;-145.69;100.00;52541.44;5136537;27;20220;-83
2022/11/10 02:26:21;;;;;;;11.07;3.50;;;;;;;-145.69;100.00;52569.16;5136947;27;20199;-83
2022/11/10 02:28:48;;;;;;;12.03;2.67;;;;;;;-145.69;100.00;52561.22;5136740;27;20193;-83
2022/11/10 02:31:15;;;;;;;12.30;3.17;;;;;;;-145.69;100.00;52547.38;5136553;27;20203;-83
2022/11/10 02:33:42;;;;;;;7.23;3.00;;;;;;;-145.69;100.00;52529.53;5136199;27;20209;-82
2022/11/10 02:36:09;;;;;;;11.97;2.80;;;;;;;-145.69;100.00;52569.16;5136329;27;20208;-83
2022/11/10 02:38:37;;;;;;;5.47;2.20;;;;;;;-145.69;100.00;52555.28;5136064;27;20208;-84
2022/11/10 02:41:04;;;;;;;6.17;2.63;;;;;;;-145.69;100.00;52577.06;5136003;27;20204;-83
2022/11/10 02:43:30;;;;;;;6.47;2.20;;;;;;;-145.69;100.00;52571.13;5136136;27;20224;-84
2022/11/10 02:45:57;;;;;;;5.97;2.27;;;;;;;-145.69;100.00;52545.38;5135755;27;20197;-84
2022/11/10 02:48:23;;;;;;;10.40;3.00;;;;;;;-145.69;100.00;52563.22;5136164;27;20203;-83
2022/11/10 02:50:50;;;;;;;4.97;2.33;;;;;;;-145.69;100.00;52547.38;5135817;27;20201;-83
2022/11/10 02:53:16;;;;;;;11.43;2.63;;;;;;;-145.69;100.00;52551.31;5135216;27;20197;-83
2022/11/10 02:55:44;;;;;;;7.20;2.43;;;;;;;-145.69;100.00;52575.09;5135616;27;20291;-83
2022/11/10 02:58:11;;;;;;;6.10;2.40;;;;;;;-145.69;100.00;52592.91;5135064;27;20208;-82
2022/11/10 03:00:37;;;;;;;8.77;2.17;;;;;;;-145.69;100.00;52547.38;5137353;27;20529;-83
2022/11/10 03:03:04;;;;;;;6.33;1.97;;;;;;;-145.69;100.00;52590.94;5136509;27;20678;-83
2022/11/10 03:05:31;;;;;;;5.93;2.50;;;;;;;-145.69;100.00;52579.06;5136170;27;20204;-83
2022/11/10 03:08:02;;;;;;;3.83;1.80;;;;;;;-145.69;100.00;52531.53;5135587;27;20228;-83
2022/11/10 03:10:30;;;;;;;6.60;2.20;;;;;;;-145.69;100.00;52543.41;5135437;27;20204;-83
2022/11/10 03:13:00;;;;;;;4.33;2.40;;;;;;;-145.69;100.00;52557.28;5131932;27;20550;-83
2022/11/10 03:15:28;;;;;;;8.53;3.10;;;;;;;-145.69;100.00;52575.09;5136854;27;20214;-83
2022/11/10 03:17:55;;;;;;;8.53;2.40;;;;;;;-145.69;100.00;52551.31;5135675;27;20197;-84
2022/11/10 03:20:21;;;;;;;4.03;1.80;;;;;;;-145.69;100.00;52590.94;5135613;27;20193;-84
2022/11/10 03:22:48;;;;;;;6.60;2.57;;;;;;;-145.69;100.00;52585.00;5134729;27;20199;-85
2022/11/10 03:25:15;;;;;;;6.03;2.80;;;;;;;-145.69;100.00;52557.28;5135541;27;20228;-84
2022/11/10 03:27:41;;;;;;;7.97;2.77;;;;;;;-145.69;100.00;52565.19;5135264;27;20193;-84
2022/11/10 03:30:10;;;;;;;4.30;2.20;;;;;;;-145.69;100.00;52539.44;5134912;27;20627;-83
2022/11/10 03:32:36;;;;;;;8.13;2.03;;;;;;;-145.69;100.00;52563.22;5134986;27;20208;-83
2022/11/10 03:35:03;;;;;;;6.60;2.27;;;;;;;-145.69;100.00;52573.13;5134933;27;20590;-83
2022/11/10 03:37:30;;;;;;;5.50;2.40;;;;;;;-145.69;100.00;52577.06;5134899;27;20555;-82
2022/11/10 03:39:56;;;;;;;7.07;2.00;;;;;;;-145.69;100.00;52559.25;5134698;27;20287;-83
2022/11/10 03:42:23;;;;;;;4.37;1.93;;;;;;;-145.69;100.00;52553.31;5134991;27;20670;-83
2022/11/10 03:44:50;;;;;;;7.97;2.13;;;;;;;-145.69;100.00;52579.06;5134728;27;20224;-83
2022/11/10 03:47:18;;;;;;;7.93;2.40;;;;;;;-145.69;100.00;52590.94;5135601;27;20200;-83
2022/11/10 03:49:49;;;;;;;9.10;2.50;;;;;;;-145.69;100.00;52588.97;5135233;27;20201;-83
2022/11/10 03:52:16;;;;;;;11.90;2.70;;;;;;;-145.69;100.00;52569.16;5135328;27;20212;-83
2022/11/10 03:54:42;;;;;;;10.27;2.87;;;;;;;-145.69;100.00;52588.97;5135283;27;20197;-83
2022/11/10 03:57:12;;;;;;;7.17;2.43;;;;;;;-145.69;100.00;52586.97;5135166;27;20287;-83
2022/11/10 03:59:38;;;;;;;9.50;2.60;;;;;;;-145.69;100.00;52571.13;5135351;27;20297;-82
2022/11/10 04:02:05;;;;;;;4.67;2.30;;;;;;;-145.69;100.00;52604.81;5135653;27;20197;-82
2022/11/10 04:10:06;;;;;;;4.27;2.47;;;;;;;-145.69;100.00;52571.13;5135246;27;20611;-83
2022/11/10 04:20:44;;;;;;;6.07;1.97;;;;;;;-145.69;100.00;52575.09;5134161;27;20196;-83
2022/11/10 04:23:30;;;;;;;5.57;2.20;;;;;;;-145.69;100.00;52569.16;5134560;27;20201;-83
2022/11/10 04:28:43;;;;;;;7.77;2.63;;;;;;;-145.69;100.00;52563.22;5134069;27;20203;-82
2022/11/10 04:31:10;;;;;;;9.03;2.40;;;;;;;-145.69;100.00;52583.00;5135299;27;20192;-84
2022/11/10 04:33:41;;;;;;;10.53;2.40;;;;;;;-145.69;100.00;52586.97;5134652;27;20204;-82
2022/11/10 04:36:10;;;;;;;10.23;2.53;;;;;;;-145.69;100.00;52579.06;5134508;28;20192;-83
2022/11/10 04:38:41;;;;;;;7.60;3.00;;;;;;;-145.69;100.00;52575.09;5134221;27;20197;-83
2022/11/10 04:41:08;;;;;;;11.50;3.57;;;;;;;-145.69;100.00;52555.28;5135039;28;20224;-82
2022/11/10 04:43:35;;;;;;;14.90;4.07;;;;;;;-145.69;100.00;52594.91;5134619;27;20232;-83
2022/11/10 04:46:02;;;;;;;10.47;3.77;;;;;;;-145.69;100.00;52583.00;5134048;27;20192;-83
2022/11/10 04:48:32;;;;;;;13.63;3.40;;;;;;;-145.69;100.00;52575.09;5134273;28;20212;-83
2022/11/10 04:51:03;;;;;;;4.23;2.77;;;;;;;-145.69;100.00;52606.78;5133941;27;20196;-82
2022/11/10 04:53:31;;;;;;;11.83;3.30;;;;;;;-145.69;100.00;52618.66;5133858;28;20201;-83
2022/11/10 04:55:58;;;;;;;14.20;3.90;;;;;;;-145.69;100.00;52586.97;5134191;28;20197;-83
2022/11/10 04:58:24;;;;;;;8.93;3.97;;;;;;;-145.69;100.00;52567.16;5133865;28;20203;-83
2022/11/10 05:00:51;;;;;;;9.77;3.20;;;;;;;-145.69;100.00;52543.41;5133776;28;20284;-84
2022/11/10 05:03:17;;;;;;;8.73;3.57;;;;;;;-145.69;100.00;52586.97;5133312;28;20274;-84
2022/11/10 05:05:48;;;;;;;7.87;2.90;;;;;;;-145.69;100.00;52577.06;5133947;28;20571;-83
2022/11/10 05:08:15;;;;;;;7.23;2.93;;;;;;;-145.69;100.00;52579.06;5134234;28;20204;-83
2022/11/10 05:10:44;;;;;;;10.63;4.20;;;;;;;-145.69;100.00;52602.81;5133748;28;20203;-83
2022/11/10 05:13:11;;;;;;;11.27;4.23;;;;;;;-145.69;100.00;52575.09;5133781;27;20215;-83
2022/11/10 05:15:40;;;;;;;15.17;3.43;;;;;;;-145.69;100.00;52573.13;5133536;27;20254;-84
2022/11/10 05:18:09;;;;;;;12.10;3.50;;;;;;;-145.69;100.00;52571.13;5133773;28;20674;-84
2022/11/10 05:20:36;;;;;;;13.57;3.97;;;;;;;-145.69;100.00;52612.72;5130557;27;20196;-84
2022/11/10 05:25:48;;;;;;;8.80;3.53;;;;;;;-145.69;100.00;52585.00;5137507;27;20749;-84
2022/11/10 05:28:15;;;;;;;15.63;4.27;;;;;;;-145.69;100.00;52583.00;5137259;27;20258;-83
2022/11/10 05:30:42;;;;;;;6.87;3.13;;;;;;;-145.69;100.00;52555.28;5137574;27;20204;-84
2022/11/10 05:33:10;;;;;;;14.80;4.53;;;;;;;-145.69;100.00;52598.84;5136693;27;20236;-84
2022/11/10 05:35:37;;;;;;;25.73;7.47;;;;;;;-145.69;100.00;52553.31;5137035;27;20247;-85
2022/11/10 05:38:04;;;;;;;17.47;5.43;;;;;;;-145.69;100.00;52602.81;5137015;27;20222;-84
2022/11/10 05:40:31;;;;;;;20.63;4.73;;;;;;;-145.69;100.00;52581.03;5137187;27;20197;-84
2022/11/10 05:43:01;;;;;;;10.07;3.83;;;;;;;-145.69;100.00;52602.81;5137129;27;20203;-84
2022/11/10 05:45:28;;;;;;;7.40;3.80;;;;;;;-145.69;100.00;52596.88;5136944;27;20232;-83
2022/11/10 05:47:55;;;;;;;12.60;3.70;;;;;;;-145.69;100.00;52606.78;5137048;27;20192;-85
2022/11/10 05:50:23;;;;;;;7.70;3.20;;;;;;;-145.69;100.00;52606.78;5137514;27;20250;-83
2022/11/10 05:52:51;;;;;;;10.77;4.30;;;;;;;-145.69;100.00;52616.69;5137262;27;20197;-84
2022/11/10 05:55:19;;;;;;;9.73;3.43;;;;;;;-145.69;100.00;52616.69;5136967;27;20767;-83
2022/11/10 05:57:47;;;;;;;8.23;2.57;;;;;;;-145.69;100.00;52614.72;5136514;27;20261;-84
2022/11/10 06:00:17;;;;;;;7.20;2.37;;;;;;;-145.69;100.00;52626.59;5136922;27;20208;-84
2022/11/10 06:02:44;;;;;;;9.90;2.80;;;;;;;-145.69;100.00;52602.81;5136963;27;20594;-84
2022/11/10 06:05:11;;;;;;;13.13;3.60;;;;;;;-145.69;100.00;52610.75;5136352;27;20236;-83
2022/11/10 06:07:38;;;;;;;7.10;2.90;;;;;;;-145.69;100.00;52638.47;5136585;27;20212;-84
2022/11/10 06:10:06;;;;;;;10.70;3.13;;;;;;;-145.69;100.00;52632.53;5136677;27;20204;-85
2022/11/10 06:12:32;;;;;;;12.87;3.10;;;;;;;-145.69;100.00;52602.81;5136901;27;20295;-83
2022/11/10 06:14:59;;;;;;;8.17;3.47;;;;;;;-145.69;100.00;52577.06;5136844;27;20670;-84
2022/11/10 06:17:28;;;;;;;6.60;2.70;;;;;;;-145.69;100.00;52604.81;5136792;27;20204;-84
2022/11/10 06:19:55;;;;;;;9.47;2.77;;;;;;;-145.69;100.00;52628.56;5137674;27;20212;-83
2022/11/10 06:22:21;;;;;;;9.10;3.40;;;;;;;-145.69;100.00;52614.72;5137198;27;20206;-83
2022/11/10 06:24:48;;;;;;;7.17;3.30;;;;;;;-145.69;100.00;52604.81;5136704;27;20229;-83
2022/11/10 06:27:14;;;;;;;10.20;4.55;;;;;;;-145.69;100.00;52577.06;5136523;27;20865;-83
2022/11/10 06:29:41;;;;;;;17.60;5.37;;;;;;;-145.69;100.00;52610.75;5136727;27;20225;-83
2022/11/10 06:32:07;;;;;;;13.40;4.37;;;;;;;-145.69;100.00;52598.84;5136179;27;20271;-83
2022/11/10 06:34:35;;;;;;;12.90;4.50;;;;;;;-145.69;100.00;52606.78;5135137;27;20251;-83
2022/11/10 06:37:02;;;;;;;17.93;4.80;;;;;;;-145.69;100.00;52610.75;5135170;27;20193;-83
2022/11/10 06:39:28;;;;;;;9.87;4.23;;;;;;;-145.69;100.00;52606.78;5135937;27;20223;-83
2022/11/10 06:41:55;;;;;;;9.70;3.67;;;;;;;-145.69;100.00;52583.00;5135487;27;20678;-83
2022/11/10 06:44:21;;;;;;;14.73;4.07;;;;;;;-145.69;100.00;52606.78;5136172;27;20201;-83
2022/11/10 06:46:51;;;;;;;10.20;3.87;;;;;;;-145.69;100.00;52594.91;5136068;27;20201;-84
2022/11/10 06:49:19;;;;;;;8.40;3.50;;;;;;;-145.69;100.00;52634.50;5135713;27;20196;-84
2022/11/10 06:51:48;;;;;;;14.47;4.07;;;;;;;-145.69;100.00;52614.72;5135909;27;20291;-84
2022/11/10 06:54:15;;;;;;;10.10;4.33;;;;;;;-145.69;100.00;52598.84;5136084;27;20208;-84
2022/11/10 06:56:42;;;;;;;12.23;4.13;;;;;;;-145.69;100.00;52628.56;5135801;27;20188;-84
2022/11/10 06:59:09;;;;;;;12.30;3.40;;;;;;;-145.69;100.00;52606.78;5135417;27;20193;-84
2022/11/10 07:01:36;;;;;;;9.30;3.17;;;;;;;-145.69;100.00;52596.88;5135743;27;20197;-84
2022/11/10 07:04:03;;;;;;;6.10;3.67;;;;;;;-145.69;100.00;52606.78;5135381;27;20217;-82
2022/11/10 07:06:30;;;;;;;9.73;3.70;;;;;;;-145.69;100.00;52620.66;5135388;27;20224;-84
2022/11/10 07:09:01;;;;;;;21.70;4.07;;;;;;;-145.69;100.00;52598.84;5135238;27;20201;-84
2022/11/10 07:11:29;;;;;;;14.07;4.00;;;;;;;-145.69;100.00;52634.50;5135498;27;20232;-83
2022/11/10 07:13:55;;;;;;;46.93;4.30;;;;;;;-145.69;100.00;52606.78;5135090;27;20208;-84
2022/11/10 07:16:22;;;;;;;23.83;4.60;;;;;;;-145.69;100.00;52622.63;5134823;27;20201;-84
2022/11/10 07:18:48;;;;;;;16.73;5.67;;;;;;;-145.69;100.00;52602.81;5133129;27;20193;-84
2022/11/10 07:21:15;;;;;;;19.20;5.60;;;;;;;-145.69;100.00;52610.75;5134992;27;20204;-82
2022/11/10 07:23:41;;;;;;;23.50;5.83;;;;;;;-145.69;100.00;52612.72;5135513;27;20291;-84
2022/11/10 07:26:09;;;;;;;24.07;4.90;;;;;;;-145.69;100.00;52590.94;5134630;27;20224;-83
2022/11/10 07:28:36;;;;;;;11.47;3.73;;;;;;;-145.69;100.00;52596.88;5135080;27;20200;-83
2022/11/10 07:31:02;;;;;;;8.13;3.90;;;;;;;-145.69;100.00;52590.94;5135271;27;20200;-83
2022/11/10 07:33:29;;;;;;;7.33;3.93;;;;;;;-145.69;100.00;52559.25;5134889;27;20193;-83
2022/11/10 07:35:57;;;;;;;9.13;3.77;;;;;;;-145.69;100.00;52600.84;5134510;27;20232;-83
2022/11/10 07:38:24;;;;;;;11.07;3.53;;;;;;;-145.69;100.00;52565.19;5135353;27;20224;-82
2022/11/10 07:40:51;;;;;;;10.77;3.83;;;;;;;-145.69;100.00;52585.00;5135464;27;20200;-82
2022/11/10 07:43:19;;;;;;;6.83;3.20;;;;;;;-145.69;100.00;52612.72;5134732;27;20192;-82
2022/11/10 07:45:46;;;;;;;9.33;3.57;;;;;;;-145.69;100.00;52626.59;5134202;27;20267;-83
2022/11/10 07:48:14;;;;;;;9.73;3.80;;;;;;;-145.69;100.00;52614.72;5134826;27;20211;-83
2022/11/10 07:50:41;;;;;;;15.37;3.57;;;;;;;-145.69;100.00;52590.94;5134595;27;20197;-79
2022/11/10 07:53:09;;;;;;;10.67;3.60;;;;;;;-145.69;100.00;52590.94;5134519;27;20204;-82
2022/11/10 07:55:37;;;;;;;7.90;4.03;;;;;;;-145.69;100.00;52610.75;5134144;27;20201;-81
2022/11/10 07:58:04;;;;;;;20.00;3.60;;;;;;;-145.69;100.00;52608.75;5134278;27;20192;-81
2022/11/10 08:00:33;;;;;;;6.47;3.07;;;;;;;-145.69;100.00;52614.72;5134044;27;20196;-81
2022/11/10 08:03:04;;;;;;;5.73;2.53;;;;;;;-145.69;100.00;52610.75;5134071;27;20196;-81
2022/11/10 08:05:33;;;;;;;17.03;3.67;;;;;;;-145.69;100.00;52577.06;5133921;27;20653;-81
2022/11/10 08:08:00;;;;;;;8.30;3.00;;;;;;;-145.69;100.00;52602.81;5133311;27;20192;-82
2022/11/10 08:10:26;;;;;;;10.47;2.87;;;;;;;-145.69;100.00;52604.81;5133858;27;20599;-82
2022/11/10 08:12:54;;;;;;;9.90;2.97;;;;;;;-145.69;100.00;52573.13;5133809;27;20592;-81
2022/11/10 08:15:21;;;;;;;6.50;3.40;;;;;;;-145.69;100.00;52618.66;5134169;27;20197;-81
2022/11/10 08:17:51;;;;;;;11.40;3.47;;;;;;;-145.69;100.00;52612.72;5134020;27;20228;-81
2022/11/10 08:20:18;;;;;;;16.83;4.13;;;;;;;-145.69;100.00;52626.59;5133385;27;20208;-81
2022/11/10 08:22:45;;;;;;;12.73;3.57;;;;;;;-145.69;100.00;52602.81;5133614;28;20563;-81
2022/11/10 08:25:11;;;;;;;11.27;3.33;;;;;;;-145.69;100.00;52569.16;5133666;28;20219;-82
2022/11/10 08:27:38;;;;;;;9.97;3.40;;;;;;;-145.69;100.00;52571.13;5133604;27;20212;-83
2022/11/10 08:30:07;;;;;;;10.43;3.07;;;;;;;-145.69;100.00;52612.72;5133506;27;20200;-82
2022/11/10 08:32:33;;;;;;;12.50;3.40;;;;;;;-145.69;100.00;52614.72;5133675;27;20215;-82
2022/11/10 08:35:01;;;;;;;8.73;3.57;;;;;;;-145.69;100.00;52610.75;5133679;27;20286;-84
2022/11/10 08:37:29;;;;;;;11.03;3.77;;;;;;;-145.69;100.00;52577.06;5133447;28;20269;-82
2022/11/10 08:39:55;;;;;;;12.13;3.50;;;;;;;-145.69;100.00;52598.84;5133640;28;20200;-81
2022/11/10 08:42:22;;;;;;;11.27;3.87;;;;;;;-145.69;100.00;52592.91;5133682;27;20200;-83
2022/11/10 08:44:54;;;;;;;10.27;4.37;;;;;;;-145.69;100.00;52553.31;5133270;27;20200;-82
2022/11/10 08:47:21;;;;;;;13.63;4.47;;;;;;;-145.69;100.00;52569.16;5133352;27;20197;-83
2022/11/10 08:49:47;;;;;;;19.43;5.23;;;;;;;-145.69;100.00;52555.28;5133717;27;20202;-83
2022/11/10 08:52:15;;;;;;;17.13;5.00;;;;;;;-145.69;100.00;52567.16;5133658;27;20207;-83
2022/11/10 08:54:42;;;;;;;19.50;6.80;;;;;;;-145.69;100.00;52606.78;5132234;28;20429;-82
2022/11/10 08:57:08;;;;;;;23.00;7.07;;;;;;;-145.69;100.00;52575.09;5135554;27;20204;-82
2022/11/10 08:59:35;;;;;;;17.50;4.07;;;;;;;-145.69;100.00;52559.25;5137596;27;20205;-83
2022/11/10 09:02:02;;;;;;;13.87;3.47;;;;;;;-145.69;100.00;52575.09;5137177;27;20204;-83
2022/11/10 09:04:29;;;;;;;15.03;4.33;;;;;;;-145.69;100.00;52553.31;5137185;27;20674;-83
2022/11/10 09:06:56;;;;;;;12.00;3.07;;;;;;;-145.69;100.00;52555.28;5137163;27;20240;-83
2022/11/10 09:09:27;;;;;;;15.00;2.80;;;;;;;-145.69;100.00;52577.06;5137833;27;20197;-82
2022/11/10 09:11:53;;;;;;;12.80;2.23;;;;;;;-145.69;100.00;52547.38;5137585;27;20558;-82
2022/11/10 09:14:20;;;;;;;9.93;2.40;;;;;;;-145.69;100.00;52557.28;5137352;27;20204;-82
2022/11/10 09:16:46;;;;;;;12.00;2.30;;;;;;;-145.69;100.00;52555.28;5136886;27;20799;-83
2022/11/10 09:19:13;;;;;;;10.07;1.50;;;;;;;-145.69;100.00;52541.44;5137059;27;20200;-83
2022/11/10 09:21:39;;;;;;;8.97;1.63;;;;;;;-145.69;100.00;52571.13;5136600;27;20197;-83
2022/11/10 09:24:07;;;;;;;5.40;1.60;;;;;;;-145.69;100.00;52588.97;5137316;27;20212;-83
2022/11/10 09:26:35;;;;;;;4.50;1.30;;;;;;;-145.69;100.00;52543.41;5137161;27;20220;-83
2022/11/10 09:29:01;;;;;;;5.33;1.40;;;;;;;-145.69;100.00;52547.38;5133854;27;20189;-83
2022/11/10 09:31:28;;;;;;;4.07;1.40;;;;;;;-145.69;100.00;52547.38;5136541;27;20193;-83
2022/11/10 09:33:54;;;;;;;5.07;1.20;;;;;;;-145.69;100.00;52541.44;5136650;27;20647;-83
2022/11/10 09:36:21;;;;;;;3.93;1.30;;;;;;;-145.69;100.00;52553.31;5136756;27;20193;-83
2022/11/10 09:38:47;;;;;;;7.70;1.40;;;;;;;-145.69;100.00;52577.06;5137090;27;20196;-83
2022/11/10 09:41:15;;;;;;;4.47;1.23;;;;;;;-145.69;100.00;52581.03;5136925;27;20291;-82
2022/11/10 09:43:52;;;;;;;4.13;1.17;;;;;;;-145.69;100.00;52575.09;5136212;27;20200;-83
2022/11/10 09:46:23;;;;;;;6.53;2.03;;;;;;;-145.69;100.00;52523.59;5136836;27;20229;-83
2022/11/10 09:48:53;;;;;;;8.33;1.20;;;;;;;-145.69;100.00;52555.28;5133320;27;20648;-81
2022/11/10 09:51:24;;;;;;;5.93;1.00;;;;;;;-145.69;100.00;52553.31;5136315;27;20555;-80
2022/11/10 09:53:56;;;;;;;7.23;1.20;;;;;;;-145.69;100.00;52523.59;5136266;27;20215;-81
2022/11/10 09:56:30;;;;;;;10.80;1.50;;;;;;;-145.69;100.00;52539.44;5136454;27;20574;-82
2022/11/10 09:58:59;;;;;;;4.10;1.10;;;;;;;-145.69;100.00;52521.63;5136481;27;20196;-82
2022/11/10 10:01:34;;;;;;;5.30;1.20;;;;;;;-145.69;100.00;52559.25;5136177;27;20211;-82
2022/11/10 10:04:12;;;;;;;9.48;1.20;;;;;;;-145.69;100.00;52525.59;5136154;27;20216;-81
2022/11/10 10:06:47;;;;;;;3.85;1.23;;;;;;;-145.69;100.00;52503.81;5136028;27;20235;-81
2022/11/10 10:09:27;;;;;;;8.98;1.65;;;;;;;-145.69;100.00;52527.56;5135866;27;20680;-80
2022/11/10 10:12:03;;;;;;;5.60;1.08;;;;;;;-145.69;100.00;52571.13;5136004;27;20200;-81
2022/11/10 10:14:57;;;;;;;6.35;1.73;;;;;;;-145.69;100.00;52519.63;5136054;27;20647;-81
2022/11/10 10:17:33;;;;;;;2.90;1.15;;;;;;;-145.69;100.00;52503.81;5125302;27;20222;-81
2022/11/10 10:20:09;;;;;;;6.95;1.40;;;;;;;-145.69;100.00;52511.72;5135664;27;20452;-81
2022/11/10 10:22:51;;;;;;;5.60;1.25;;;;;;;-145.69;100.00;52495.88;5135886;27;20224;-81
2022/11/10 10:25:20;;;;;;;5.32;1.13;;;;;;;-145.69;100.00;52491.91;5135511;27;20287;-82
2022/11/10 10:27:51;;;;;;;4.50;1.23;;;;;;;-145.69;100.00;52513.69;5135827;27;20651;-82
2022/11/10 10:30:20;;;;;;;4.53;1.52;;;;;;;-145.69;100.00;52523.59;5135727;27;20203;-82
2022/11/10 10:32:47;;;;;;;4.60;1.23;;;;;;;-145.69;100.00;52541.44;5135919;27;20207;-82
2022/11/10 10:35:14;;;;;;;5.32;1.60;;;;;;;-145.69;100.00;52482.00;5135574;27;20338;-82
2022/11/10 10:37:44;;;;;;;4.95;1.48;;;;;;;-145.69;100.00;52487.97;5135642;27;20236;-82
2022/11/10 10:40:15;;;;;;;5.22;1.30;;;;;;;-145.69;100.00;52505.78;5135711;27;20220;-82
2022/11/10 10:42:42;;;;;;;3.55;1.30;;;;;;;-145.69;100.00;52503.81;5135561;27;20715;-81
2022/11/10 10:45:17;;;;;;;6.75;1.17;;;;;;;-145.69;100.00;52529.53;5135620;27;20192;-82
2022/11/10 10:47:46;;;;;;;3.83;1.20;;;;;;;-145.69;100.00;52505.78;5135656;27;20268;-83
2022/11/10 10:50:25;;;;;;;6.53;1.00;;;;;;;-145.69;100.00;52519.63;5136492;27;20197;-81
2022/11/10 10:53:12;;;;;;;5.55;1.30;;;;;;;-145.69;100.00;52503.81;5135578;27;20192;-82
2022/11/10 10:55:44;;;;;;;2.15;1.10;;;;;;;-145.69;100.00;52529.53;5135142;27;20204;-82
2022/11/10 10:58:21;;;;;;;5.38;1.27;;;;;;;-145.69;100.00;52523.59;5135599;27;20201;-82
2022/11/10 11:00:50;;;;;;;6.47;1.10;;;;;;;-145.69;100.00;52491.91;5135531;27;20207;-82
2022/11/10 11:03:26;;;;;;;5.13;0.95;;;;;;;-145.69;100.00;52511.72;5135379;27;20224;-81
2022/11/10 11:06:01;;;;;;;2.97;1.00;;;;;;;-145.69;100.00;52491.91;5134999;27;20255;-81
2022/11/10 11:08:28;;;;;;;2.72;0.88;;;;;;;-145.69;100.00;52491.91;5135325;27;20543;-82
2022/11/10 11:10:55;;;;;;;1.52;1.05;;;;;;;-145.69;100.00;52521.63;5134693;27;20185;-81
2022/11/10 11:13:23;;;;;;;3.47;0.90;;;;;;;-145.69;100.00;52480.03;5134507;27;20201;-82
2022/11/10 11:15:57;;;;;;;4.50;1.25;;;;;;;-145.69;100.00;52499.84;5135031;27;20562;-81
2022/11/10 11:18:27;;;;;;;3.85;1.02;;;;;;;-145.69;100.00;52525.59;5134752;27;20253;-81
2022/11/10 11:21:01;;;;;;;4.25;1.00;;;;;;;-145.69;100.00;52513.69;5134373;27;20650;-81
2022/11/10 11:23:43;;;;;;;6.38;1.20;;;;;;;-145.69;100.00;52487.97;5134968;27;20203;-81
2022/11/10 11:26:21;;;;;;;4.53;1.08;;;;;;;-145.69;100.00;52531.53;5134710;27;20578;-81
2022/11/10 11:28:57;;;;;;;2.72;0.90;;;;;;;-145.69;100.00;52547.38;5134659;27;20197;-81
2022/11/10 11:31:35;;;;;;;2.75;0.85;;;;;;;-145.69;100.00;52497.84;5134815;27;20199;-82
2022/11/10 11:34:12;;;;;;;4.88;1.20;;;;;;;-145.69;100.00;52511.72;5114130;28;20235;-81